Terminal Aerodrome Forecast
Issued by NWS

Home | Current Version | Previous Version | Text Only | Print | Product List | Glossary On
Versions: 1 2 3 4 5 6 7 8 9 10 11 12 13 14 15 16 17 18 19 20 21 22 23
000
FTUS41 KPBZ 271300 AAA
TAFFKL
TAF AMD
KFKL 271322Z 2713/2812 30006KT 5SM -SHSN SCT005 BKN035
      TEMPO 2713/2716 2SM -SHSN BKN005
     FM271600 29008KT 6SM -SHSN BKN025
      AMD LTD TO CLD VIS AND WIND=

USA.gov is the U.S. government's official web portal to all federal, state and local government web resources and services.